sensor_id;sensor_type;location;lat;lon;timestamp;P1;durP1;ratioP1;P2;durP2;ratioP2
21517;SDS011;61765;45.794;24.150;2024-02-21T00:00:51;41.03;;;22.70;;
21517;SDS011;61765;45.794;24.150;2024-02-21T00:08:59;35.38;;;21.02;;
21517;SDS011;61765;45.794;24.150;2024-02-21T00:17:05;48.45;;;27.63;;
21517;SDS011;61765;45.794;24.150;2024-02-21T00:25:14;52.53;;;30.70;;
21517;SDS011;61765;45.794;24.150;2024-02-21T00:33:19;50.50;;;28.42;;
21517;SDS011;61765;45.794;24.150;2024-02-21T00:41:28;50.95;;;27.40;;
21517;SDS011;61765;45.794;24.150;2024-02-21T00:49:34;50.22;;;28.45;;
21517;SDS011;61765;45.794;24.150;2024-02-21T00:57:42;48.20;;;25.60;;
21517;SDS011;61765;45.794;24.150;2024-02-21T01:05:48;48.85;;;26.98;;
21517;SDS011;61765;45.794;24.150;2024-02-21T01:13:57;46.63;;;27.10;;
21517;SDS011;61765;45.794;24.150;2024-02-21T01:22:03;43.72;;;24.13;;
21517;SDS011;61765;45.794;24.150;2024-02-21T01:30:12;41.15;;;24.65;;
21517;SDS011;61765;45.794;24.150;2024-02-21T01:38:18;44.33;;;24.88;;
21517;SDS011;61765;45.794;24.150;2024-02-21T01:46:26;40.05;;;23.40;;
21517;SDS011;61765;45.794;24.150;2024-02-21T01:54:35;41.67;;;24.33;;
21517;SDS011;61765;45.794;24.150;2024-02-21T02:02:44;40.92;;;24.02;;
21517;SDS011;61765;45.794;24.150;2024-02-21T02:10:51;40.00;;;22.05;;
21517;SDS011;61765;45.794;24.150;2024-02-21T02:18:59;34.08;;;19.08;;
21517;SDS011;61765;45.794;24.150;2024-02-21T02:27:08;29.45;;;17.23;;
21517;SDS011;61765;45.794;24.150;2024-02-21T02:35:14;37.38;;;21.38;;
21517;SDS011;61765;45.794;24.150;2024-02-21T02:43:22;36.40;;;20.00;;
21517;SDS011;61765;45.794;24.150;2024-02-21T02:51:28;34.97;;;19.23;;
21517;SDS011;61765;45.794;24.150;2024-02-21T02:59:36;31.20;;;17.33;;
21517;SDS011;61765;45.794;24.150;2024-02-21T03:07:42;30.73;;;18.65;;
21517;SDS011;61765;45.794;24.150;2024-02-21T03:15:51;36.67;;;19.30;;
21517;SDS011;61765;45.794;24.150;2024-02-21T03:23:57;32.55;;;18.42;;
21517;SDS011;61765;45.794;24.150;2024-02-21T03:32:05;34.80;;;19.20;;
21517;SDS011;61765;45.794;24.150;2024-02-21T03:40:11;34.28;;;18.95;;
21517;SDS011;61765;45.794;24.150;2024-02-21T03:48:20;39.33;;;21.58;;
21517;SDS011;61765;45.794;24.150;2024-02-21T03:56:25;40.40;;;21.15;;
21517;SDS011;61765;45.794;24.150;2024-02-21T04:04:34;36.85;;;20.80;;
21517;SDS011;61765;45.794;24.150;2024-02-21T04:12:40;45.70;;;23.55;;
21517;SDS011;61765;45.794;24.150;2024-02-21T04:20:50;42.60;;;23.70;;
21517;SDS011;61765;45.794;24.150;2024-02-21T04:28:56;49.05;;;25.10;;
21517;SDS011;61765;45.794;24.150;2024-02-21T04:37:05;41.78;;;22.67;;
21517;SDS011;61765;45.794;24.150;2024-02-21T04:45:11;44.35;;;24.25;;
21517;SDS011;61765;45.794;24.150;2024-02-21T04:53:19;37.13;;;21.88;;
21517;SDS011;61765;45.794;24.150;2024-02-21T05:01:25;35.25;;;18.55;;
21517;SDS011;61765;45.794;24.150;2024-02-21T05:09:35;40.58;;;21.02;;
21517;SDS011;61765;45.794;24.150;2024-02-21T05:17:42;34.95;;;19.27;;
21517;SDS011;61765;45.794;24.150;2024-02-21T05:25:50;33.75;;;18.67;;
21517;SDS011;61765;45.794;24.150;2024-02-21T05:33:56;33.75;;;18.85;;
21517;SDS011;61765;45.794;24.150;2024-02-21T05:42:09;30.55;;;18.08;;
21517;SDS011;61765;45.794;24.150;2024-02-21T05:50:15;27.25;;;16.48;;
21517;SDS011;61765;45.794;24.150;2024-02-21T05:58:23;22.60;;;15.02;;
21517;SDS011;61765;45.794;24.150;2024-02-21T06:06:29;22.40;;;13.18;;
21517;SDS011;61765;45.794;24.150;2024-02-21T06:14:38;23.10;;;14.98;;
21517;SDS011;61765;45.794;24.150;2024-02-21T06:22:43;22.60;;;13.73;;
21517;SDS011;61765;45.794;24.150;2024-02-21T06:30:52;19.48;;;12.35;;
21517;SDS011;61765;45.794;24.150;2024-02-21T06:38:58;21.67;;;12.98;;
21517;SDS011;61765;45.794;24.150;2024-02-21T06:47:09;22.00;;;13.77;;
21517;SDS011;61765;45.794;24.150;2024-02-21T06:55:15;25.17;;;16.90;;
21517;SDS011;61765;45.794;24.150;2024-02-21T07:03:23;23.73;;;16.00;;
21517;SDS011;61765;45.794;24.150;2024-02-21T07:11:29;22.00;;;14.43;;
21517;SDS011;61765;45.794;24.150;2024-02-21T07:19:38;19.83;;;13.48;;
21517;SDS011;61765;45.794;24.150;2024-02-21T07:27:45;46.05;;;18.13;;
21517;SDS011;61765;45.794;24.150;2024-02-21T07:35:53;27.48;;;13.23;;
21517;SDS011;61765;45.794;24.150;2024-02-21T07:43:59;23.20;;;13.77;;
21517;SDS011;61765;45.794;24.150;2024-02-21T07:52:08;23.15;;;14.95;;
21517;SDS011;61765;45.794;24.150;2024-02-21T08:00:14;26.98;;;15.88;;
21517;SDS011;61765;45.794;24.150;2024-02-21T08:08:25;20.48;;;12.95;;
21517;SDS011;61765;45.794;24.150;2024-02-21T08:16:30;21.15;;;13.35;;
21517;SDS011;61765;45.794;24.150;2024-02-21T08:24:39;28.38;;;13.90;;
21517;SDS011;61765;45.794;24.150;2024-02-21T08:32:45;18.02;;;11.65;;
21517;SDS011;61765;45.794;24.150;2024-02-21T08:40:53;28.38;;;14.07;;
21517;SDS011;61765;45.794;24.150;2024-02-21T08:48:59;34.05;;;14.15;;
21517;SDS011;61765;45.794;24.150;2024-02-21T08:57:08;30.35;;;13.20;;
21517;SDS011;61765;45.794;24.150;2024-02-21T09:05:15;20.40;;;13.00;;
21517;SDS011;61765;45.794;24.150;2024-02-21T09:13:24;27.55;;;14.38;;
21517;SDS011;61765;45.794;24.150;2024-02-21T09:21:30;20.98;;;13.90;;
21517;SDS011;61765;45.794;24.150;2024-02-21T09:29:38;22.27;;;14.85;;
21517;SDS011;61765;45.794;24.150;2024-02-21T09:37:44;22.70;;;13.10;;
21517;SDS011;61765;45.794;24.150;2024-02-21T09:45:54;64.05;;;20.75;;
21517;SDS011;61765;45.794;24.150;2024-02-21T09:54:01;39.97;;;13.68;;
21517;SDS011;61765;45.794;24.150;2024-02-21T10:02:20;21.77;;;11.15;;
21517;SDS011;61765;45.794;24.150;2024-02-21T10:10:26;17.13;;;10.63;;
21517;SDS011;61765;45.794;24.150;2024-02-21T10:18:35;33.03;;;12.13;;
21517;SDS011;61765;45.794;24.150;2024-02-21T10:26:41;35.90;;;14.32;;
21517;SDS011;61765;45.794;24.150;2024-02-21T10:34:49;36.40;;;16.25;;
21517;SDS011;61765;45.794;24.150;2024-02-21T10:42:56;22.20;;;10.50;;
21517;SDS011;61765;45.794;24.150;2024-02-21T10:51:08;18.02;;;10.00;;
21517;SDS011;61765;45.794;24.150;2024-02-21T10:59:25;23.30;;;10.40;;
21517;SDS011;61765;45.794;24.150;2024-02-21T11:07:37;14.73;;;10.27;;
21517;SDS011;61765;45.794;24.150;2024-02-21T11:15:43;16.40;;;9.68;;
21517;SDS011;61765;45.794;24.150;2024-02-21T11:23:57;19.27;;;10.35;;
21517;SDS011;61765;45.794;24.150;2024-02-21T11:32:04;16.08;;;9.00;;
21517;SDS011;61765;45.794;24.150;2024-02-21T11:40:13;12.95;;;7.80;;
21517;SDS011;61765;45.794;24.150;2024-02-21T11:48:19;16.02;;;7.53;;
21517;SDS011;61765;45.794;24.150;2024-02-21T11:56:28;31.67;;;16.17;;
21517;SDS011;61765;45.794;24.150;2024-02-21T12:04:34;14.40;;;9.32;;
21517;SDS011;61765;45.794;24.150;2024-02-21T12:12:43;19.50;;;9.52;;
21517;SDS011;61765;45.794;24.150;2024-02-21T12:20:49;11.90;;;7.63;;
21517;SDS011;61765;45.794;24.150;2024-02-21T12:28:57;12.48;;;8.57;;
21517;SDS011;61765;45.794;24.150;2024-02-21T12:37:03;13.88;;;8.85;;
21517;SDS011;61765;45.794;24.150;2024-02-21T12:45:12;9.43;;;5.30;;
21517;SDS011;61765;45.794;24.150;2024-02-21T12:53:18;7.05;;;2.85;;
21517;SDS011;61765;45.794;24.150;2024-02-21T13:01:36;6.45;;;2.33;;
21517;SDS011;61765;45.794;24.150;2024-02-21T13:09:42;3.58;;;2.00;;
21517;SDS011;61765;45.794;24.150;2024-02-21T13:17:51;3.33;;;2.40;;
21517;SDS011;61765;45.794;24.150;2024-02-21T13:25:56;4.72;;;2.10;;
21517;SDS011;61765;45.794;24.150;2024-02-21T13:34:05;1.85;;;1.60;;
21517;SDS011;61765;45.794;24.150;2024-02-21T13:42:13;2.20;;;1.50;;
21517;SDS011;61765;45.794;24.150;2024-02-21T13:50:23;4.22;;;1.83;;
21517;SDS011;61765;45.794;24.150;2024-02-21T13:58:36;3.95;;;2.17;;
21517;SDS011;61765;45.794;24.150;2024-02-21T14:06:44;3.95;;;2.28;;
21517;SDS011;61765;45.794;24.150;2024-02-21T14:14:50;4.75;;;2.25;;
21517;SDS011;61765;45.794;24.150;2024-02-21T14:23:01;9.43;;;3.40;;
21517;SDS011;61765;45.794;24.150;2024-02-21T14:31:07;8.50;;;2.40;;
21517;SDS011;61765;45.794;24.150;2024-02-21T14:39:16;4.13;;;2.22;;
21517;SDS011;61765;45.794;24.150;2024-02-21T14:47:22;6.45;;;2.80;;
21517;SDS011;61765;45.794;24.150;2024-02-21T14:55:30;6.05;;;2.85;;
21517;SDS011;61765;45.794;24.150;2024-02-21T15:03:36;12.15;;;4.03;;
21517;SDS011;61765;45.794;24.150;2024-02-21T15:11:44;5.47;;;2.95;;
21517;SDS011;61765;45.794;24.150;2024-02-21T15:19:50;6.35;;;3.03;;
21517;SDS011;61765;45.794;24.150;2024-02-21T15:27:59;6.60;;;4.15;;
21517;SDS011;61765;45.794;24.150;2024-02-21T15:36:06;6.47;;;4.80;;
21517;SDS011;61765;45.794;24.150;2024-02-21T15:44:15;8.82;;;4.85;;
21517;SDS011;61765;45.794;24.150;2024-02-21T15:52:23;7.40;;;5.05;;
21517;SDS011;61765;45.794;24.150;2024-02-21T16:00:31;9.32;;;3.88;;
21517;SDS011;61765;45.794;24.150;2024-02-21T16:08:37;7.55;;;5.10;;
21517;SDS011;61765;45.794;24.150;2024-02-21T16:16:45;14.23;;;6.93;;
21517;SDS011;61765;45.794;24.150;2024-02-21T16:24:51;24.80;;;9.65;;
21517;SDS011;61765;45.794;24.150;2024-02-21T16:33:00;13.32;;;8.07;;
21517;SDS011;61765;45.794;24.150;2024-02-21T16:41:06;14.93;;;8.82;;
21517;SDS011;61765;45.794;24.150;2024-02-21T16:49:14;15.90;;;9.80;;
21517;SDS011;61765;45.794;24.150;2024-02-21T16:57:20;11.75;;;7.38;;
21517;SDS011;61765;45.794;24.150;2024-02-21T17:05:29;12.20;;;6.50;;
21517;SDS011;61765;45.794;24.150;2024-02-21T17:13:34;11.88;;;7.82;;
21517;SDS011;61765;45.794;24.150;2024-02-21T17:21:44;13.88;;;7.97;;
21517;SDS011;61765;45.794;24.150;2024-02-21T17:29:50;14.60;;;9.45;;
21517;SDS011;61765;45.794;24.150;2024-02-21T17:37:58;19.67;;;11.18;;
21517;SDS011;61765;45.794;24.150;2024-02-21T17:46:05;18.60;;;10.70;;
21517;SDS011;61765;45.794;24.150;2024-02-21T17:54:15;11.23;;;5.50;;
21517;SDS011;61765;45.794;24.150;2024-02-21T18:02:21;15.85;;;5.40;;
21517;SDS011;61765;45.794;24.150;2024-02-21T18:10:29;9.07;;;5.50;;
21517;SDS011;61765;45.794;24.150;2024-02-21T18:18:35;12.65;;;7.38;;
21517;SDS011;61765;45.794;24.150;2024-02-21T18:26:43;12.73;;;7.50;;
21517;SDS011;61765;45.794;24.150;2024-02-21T18:34:50;16.25;;;8.55;;
21517;SDS011;61765;45.794;24.150;2024-02-21T18:43:00;14.13;;;8.43;;
21517;SDS011;61765;45.794;24.150;2024-02-21T18:51:06;11.57;;;7.00;;
21517;SDS011;61765;45.794;24.150;2024-02-21T18:59:15;11.93;;;6.32;;
21517;SDS011;61765;45.794;24.150;2024-02-21T19:07:21;13.95;;;8.25;;
21517;SDS011;61765;45.794;24.150;2024-02-21T19:15:30;16.40;;;10.80;;
21517;SDS011;61765;45.794;24.150;2024-02-21T19:50:24;21.58;;;11.63;;
21517;SDS011;61765;45.794;24.150;2024-02-21T19:58:34;22.95;;;13.20;;
21517;SDS011;61765;45.794;24.150;2024-02-21T20:06:44;27.13;;;13.07;;
21517;SDS011;61765;45.794;24.150;2024-02-21T20:14:50;37.03;;;17.85;;
21517;SDS011;61765;45.794;24.150;2024-02-21T20:23:01;21.98;;;13.02;;
21517;SDS011;61765;45.794;24.150;2024-02-21T20:31:09;27.58;;;15.18;;
21517;SDS011;61765;45.794;24.150;2024-02-21T20:39:24;37.65;;;21.13;;
21517;SDS011;61765;45.794;24.150;2024-02-21T20:47:31;55.33;;;29.60;;
21517;SDS011;61765;45.794;24.150;2024-02-21T20:55:39;49.22;;;27.17;;
21517;SDS011;61765;45.794;24.150;2024-02-21T21:03:45;40.85;;;22.98;;
21517;SDS011;61765;45.794;24.150;2024-02-21T21:11:54;35.70;;;21.85;;
21517;SDS011;61765;45.794;24.150;2024-02-21T21:19:59;48.85;;;25.77;;
21517;SDS011;61765;45.794;24.150;2024-02-21T21:28:09;54.60;;;29.42;;
21517;SDS011;61765;45.794;24.150;2024-02-21T21:36:15;57.63;;;30.75;;
21517;SDS011;61765;45.794;24.150;2024-02-21T21:44:25;56.70;;;31.08;;
21517;SDS011;61765;45.794;24.150;2024-02-21T21:52:31;56.65;;;29.90;;
21517;SDS011;61765;45.794;24.150;2024-02-21T22:00:39;51.15;;;28.52;;
21517;SDS011;61765;45.794;24.150;2024-02-21T22:08:45;58.50;;;31.50;;
21517;SDS011;61765;45.794;24.150;2024-02-21T22:16:56;38.67;;;20.05;;
21517;SDS011;61765;45.794;24.150;2024-02-21T22:25:02;33.92;;;18.73;;
21517;SDS011;61765;45.794;24.150;2024-02-21T22:33:11;28.25;;;16.77;;
21517;SDS011;61765;45.794;24.150;2024-02-21T22:41:17;29.92;;;17.15;;
21517;SDS011;61765;45.794;24.150;2024-02-21T22:49:26;33.88;;;19.00;;
21517;SDS011;61765;45.794;24.150;2024-02-21T22:57:32;29.38;;;18.02;;
21517;SDS011;61765;45.794;24.150;2024-02-21T23:05:41;33.05;;;18.73;;
21517;SDS011;61765;45.794;24.150;2024-02-21T23:13:47;34.25;;;17.60;;
21517;SDS011;61765;45.794;24.150;2024-02-21T23:21:56;45.40;;;23.60;;
21517;SDS011;61765;45.794;24.150;2024-02-21T23:30:02;44.47;;;25.70;;
21517;SDS011;61765;45.794;24.150;2024-02-21T23:38:11;51.00;;;24.88;;
21517;SDS011;61765;45.794;24.150;2024-02-21T23:46:17;55.13;;;26.85;;
21517;SDS011;61765;45.794;24.150;2024-02-21T23:54:25;51.92;;;27.17;;
